Woodward, OK

7:26 PM CST on November 20, 2019 (GMT -0600)
West Woodward

Weather History for KWWR - October, 2019

Change the Weather History Date:

Sunday, October 20, 2019

  Actual Average (KGAG) Record (KGAG)
Temperature  
Mean Temperature 60 °F -  
Max Temperature 75 °F 71 °F 95 °F (1955)
Min Temperature 44 °F 41 °F 18 °F (1976)
Degree Days  
Heating Degree Days 6    
Growing Degree Days 10 (Base 50)    
Moisture  
Dew Point 37 °F    
Average Humidity 47    
Maximum Humidity 71    
Minimum Humidity 24    
Precipitation  
Precipitation 0.00 in - - ()
Sea Level Pressure  
Sea Level Pressure 29.72 in    
Wind  
Wind Speed 13 mph (South)    
Max Wind Speed 28 mph    
Max Gust Speed 39 mph    
Visibility 10 miles    
Events      
Averages and records for this station are not official NWS values.
T = Trace of Precipitation, MM = Missing Value Source: NWS Daily Summary

Daily Weather History Graph

Daily Weather History Graph

Search for Another Location

Airport or City:

Astronomy

Oct. 20, 2019 Rise Set
Actual Time 7:49 AM CDT 6:55 PM CDT
Civil Twilight 7:23 AM CDT 7:21 PM CDT
Nautical Twilight 6:53 AM CDT 7:51 PM CDT
Astronomical Twilight 6:23 AM CDT 8:21 PM CDT
Moon No Moon Rise 2:12 PM CDT (10/20)
Length of Visible Light 11h 58m
Length of Day
11h 05m
Waning Gibbous, 59% of the Moon is Illuminated
Oct 20
Waning Gibbous
Oct 21
Last Quarter
Oct 27
New
Nov 4
First Quarter
Nov 12
Full

Hourly Weather History & Observations

Time (CDT) Temp. Windchill Dew Point Humidity Pressure Visibility Wind Dir Wind Speed Gust Speed Precip Events Conditions
12:15 AM 51.8 °F - 33.8 °F 50% 29.84 in 10.0 mi SE 9.2 mph - N/A   Clear
12:35 AM 51.8 °F - 33.8 °F 50% 29.84 in 10.0 mi SE 6.9 mph - N/A   Clear
12:55 AM 51.8 °F - 33.8 °F 50% 29.84 in 10.0 mi SE 9.2 mph - N/A   Clear
1:15 AM 51.8 °F - 35.6 °F 54% 29.83 in 10.0 mi SE 9.2 mph - N/A   Clear
1:35 AM 51.8 °F - 35.6 °F 54% 29.83 in 10.0 mi SSE 9.2 mph - N/A   Clear
1:55 AM 53.6 °F - 35.6 °F 51% 29.81 in 10.0 mi SSE 10.4 mph - N/A   Clear
2:15 AM 53.6 °F - 35.6 °F 51% 29.81 in 10.0 mi SE 11.5 mph - N/A   Clear
2:35 AM 53.6 °F - 35.6 °F 51% 29.81 in 10.0 mi SSE 11.5 mph - N/A   Clear
2:55 AM 53.6 °F - 37.4 °F 54% 29.80 in 10.0 mi SSE 10.4 mph - N/A   Clear
3:15 AM 53.6 °F - 37.4 °F 54% 29.79 in 10.0 mi SSE 13.8 mph - N/A   Clear
3:35 AM 53.6 °F - 37.4 °F 54% 29.79 in 10.0 mi SSE 11.5 mph - N/A   Clear
3:55 AM 53.6 °F - 37.4 °F 54% 29.77 in 10.0 mi SE 12.7 mph - N/A   Clear
4:15 AM 53.6 °F - 39.2 °F 58% 29.78 in 10.0 mi SE 13.8 mph 20.7 mph N/A   Clear
4:35 AM 53.6 °F - 39.2 °F 58% 29.77 in 10.0 mi SE 12.7 mph 18.4 mph N/A   Clear
4:55 AM 51.8 °F - 39.2 °F 62% 29.77 in 10.0 mi SSE 12.7 mph - N/A   Clear
5:15 AM 51.8 °F - 41.0 °F 67% 29.77 in 10.0 mi SSE 12.7 mph - N/A   Clear
5:35 AM 51.8 °F - 41.0 °F 67% 29.77 in 10.0 mi SSE 11.5 mph - N/A   Clear
5:55 AM 51.8 °F - 41.0 °F 67% 29.76 in 10.0 mi SSE 12.7 mph 17.3 mph N/A   Clear
6:15 AM 51.8 °F - 41.0 °F 67% 29.76 in 10.0 mi SSE 12.7 mph - N/A   Clear
6:35 AM 51.8 °F - 41.0 °F 67% 29.75 in 10.0 mi SSE 17.3 mph - N/A   Clear
6:55 AM 51.8 °F - 41.0 °F 67% 29.75 in 10.0 mi SSE 16.1 mph 23.0 mph N/A   Clear
7:15 AM 51.8 °F - 41.0 °F 67% 29.75 in 10.0 mi SSE 13.8 mph - N/A   Clear
7:35 AM 51.8 °F - 42.8 °F 71% 29.75 in 10.0 mi SSE 13.8 mph - N/A   Clear
7:55 AM 51.8 °F - 42.8 °F 71% 29.74 in 10.0 mi SSE 13.8 mph - N/A   Clear
8:15 AM 53.6 °F - 42.8 °F 67% 29.74 in 10.0 mi SSE 15.0 mph - N/A   Clear
8:35 AM 53.6 °F - 42.8 °F 67% 29.74 in 10.0 mi South 15.0 mph 20.7 mph N/A   Clear
8:55 AM 55.4 °F - 42.8 °F 63% 29.74 in 10.0 mi South 15.0 mph 21.9 mph N/A   Clear
9:15 AM 57.2 °F - 42.8 °F 59% 29.73 in 10.0 mi South 18.4 mph 28.8 mph N/A   Clear
9:35 AM 59.0 °F - 44.6 °F 59% 29.72 in 10.0 mi South 26.5 mph 36.8 mph N/A   Clear
9:55 AM 57.2 °F - 44.6 °F 63% 29.72 in 10.0 mi South 25.3 mph 38.0 mph N/A   Clear
10:15 AM 59.0 °F - 44.6 °F 59% 29.71 in 10.0 mi South 24.2 mph 36.8 mph N/A   Clear
10:35 AM 59.0 °F - 44.6 °F 59% 29.70 in 10.0 mi South 23.0 mph 33.4 mph N/A   Clear
10:55 AM 62.6 °F - 44.6 °F 52% 29.69 in 10.0 mi South 27.6 mph 39.1 mph N/A   Clear
11:15 AM 62.6 °F - 44.6 °F 52% 29.69 in 10.0 mi South 26.5 mph 38.0 mph N/A   Clear
11:35 AM 64.4 °F - 44.6 °F 49% 29.70 in 10.0 mi South 24.2 mph 33.4 mph N/A   Clear
12:20 PM 68.0 °F - 44.6 °F 43% 29.68 in 10.0 mi South 19.6 mph 28.8 mph N/A   Clear
12:35 PM 68.0 °F - 44.6 °F 43% 29.68 in 10.0 mi South 18.4 mph 29.9 mph N/A   Clear
12:55 PM 69.8 °F - 44.6 °F 40% 29.67 in 10.0 mi SSW 20.7 mph 32.2 mph N/A   Clear
1:15 PM 71.6 °F - 42.8 °F 35% 29.64 in 10.0 mi SSW 19.6 mph 29.9 mph N/A   Clear
1:35 PM 71.6 °F - 42.8 °F 35% 29.64 in 10.0 mi SSW 19.6 mph 29.9 mph N/A   Clear
1:55 PM 73.4 °F - 42.8 °F 33% 29.63 in 10.0 mi SSW 18.4 mph 26.5 mph N/A   Clear
2:15 PM 75.2 °F - 42.8 °F 31% 29.62 in 10.0 mi SSW 24.2 mph 31.1 mph N/A   Clear
2:35 PM 75.2 °F - 41.0 °F 29% 29.62 in 10.0 mi SSW 17.3 mph 27.6 mph N/A   Clear
2:55 PM 73.4 °F - 41.0 °F 31% 29.62 in 10.0 mi SW 15.0 mph 26.5 mph N/A   Clear
3:15 PM 75.2 °F - 39.2 °F 27% 29.62 in 10.0 mi SW 13.8 mph 23.0 mph N/A   Clear
3:35 PM 75.2 °F - 35.6 °F 24% 29.62 in 10.0 mi WNW 13.8 mph 25.3 mph N/A   Clear
3:55 PM 71.6 °F - 33.8 °F 25% 29.62 in 10.0 mi WNW 13.8 mph - N/A   Clear
4:15 PM 69.8 °F - 33.8 °F 27% 29.62 in 10.0 mi WNW 8.1 mph - N/A   Clear
4:35 PM 68.0 °F - 33.8 °F 28% 29.62 in 10.0 mi West 11.5 mph - N/A   Clear
4:55 PM 68.0 °F - 33.8 °F 28% 29.64 in 10.0 mi WNW 10.4 mph 19.6 mph N/A   Clear
5:15 PM 64.4 °F - 33.8 °F 32% 29.64 in 10.0 mi WNW 9.2 mph 17.3 mph N/A   Clear
5:35 PM 62.6 °F - 35.6 °F 37% 29.65 in 10.0 mi NW 13.8 mph 20.7 mph N/A   Clear
5:55 PM 62.6 °F - 33.8 °F 34% 29.65 in 10.0 mi NW 16.1 mph 23.0 mph N/A   Clear
6:15 PM 62.6 °F - 33.8 °F 34% 29.66 in 10.0 mi NNW 18.4 mph - N/A   Clear
6:35 PM 62.6 °F - 32.0 °F 32% 29.67 in 10.0 mi NNW 16.1 mph 23.0 mph N/A   Clear
6:55 PM 62.6 °F - 30.2 °F 30% 29.67 in 10.0 mi North 15.0 mph 19.6 mph N/A   Scattered Clouds
7:15 PM 60.8 °F - 30.2 °F 31% 29.69 in 10.0 mi North 12.7 mph 19.6 mph N/A   Scattered Clouds
7:35 PM 60.8 °F - 30.2 °F 31% 29.71 in 10.0 mi NNW 11.5 mph 16.1 mph N/A   Scattered Clouds
7:55 PM 60.8 °F - 30.2 °F 31% 29.72 in 10.0 mi NNW 11.5 mph - N/A   Clear
8:15 PM 59.0 °F - 30.2 °F 34% 29.74 in 10.0 mi NNW 9.2 mph - N/A   Clear
8:35 PM 59.0 °F - 28.4 °F 31% 29.75 in 10.0 mi NNW 10.4 mph 20.7 mph N/A   Clear
8:55 PM 55.4 °F - 26.6 °F 33% 29.75 in 10.0 mi North 6.9 mph - N/A   Clear
9:15 PM 51.8 °F - 26.6 °F 38% 29.75 in 10.0 mi NNW 5.8 mph - N/A   Clear
9:35 PM 51.8 °F - 24.8 °F 35% 29.75 in 10.0 mi WNW 5.8 mph - N/A   Clear
9:55 PM 46.4 °F 43.5 °F 26.6 °F 46% 29.76 in 10.0 mi WSW 5.8 mph - N/A   Clear
10:15 PM 44.6 °F 40.2 °F 26.6 °F 49% 29.76 in 10.0 mi SW 8.1 mph - N/A   Clear
10:35 PM 44.6 °F 39.7 °F 26.6 °F 49% 29.76 in 10.0 mi SW 9.2 mph - N/A   Clear
10:55 PM 44.6 °F 39.2 °F 26.6 °F 49% 29.77 in 10.0 mi WSW 10.4 mph - N/A   Clear
11:10 PM 50.0 °F - 23.0 °F 35% 29.79 in 10.0 mi WNW 11.5 mph 17.3 mph N/A   Clear
11:35 PM 51.8 °F - 23.0 °F 33% 29.79 in 10.0 mi NW 10.4 mph 17.3 mph N/A   Clear